CheckWX is a tool to help pilots better visualize weather data.  It is not intended as a substitute for an official pre-flight weather briefing.

01:40:12 UTC

KPSM METAR
Portsmouth International at Pease Airport Airport
Portsmouth, New Hampshire, USA
Current

44 mins ago

KPSM 110056Z 10006KT 1/2SM R16/P6000FT FG OVC001 21/21 A2995 RMK AO2A SLP144 T02080208
Observed
Jul-11 @ 00:56 UTC
Wind
  • 100° at 6 KTS
Visibility
1/2 SM
Flight Rules
LIFR
Conditions
Fog
Cloud Levels
  • Overcast at 100' AGL
Temperature
21°C / 70°F
Dewpoint
21°C / 70°F
Humidity
100%
Altimeter
29.95" Hg
Pressure
1014.22 hPa
Previous

2 hours ago

KPSM 102356Z 10007KT 1/2SM R16/P6000FT FG OVC001 21/21 A2996 RMK AO2A DZE04 SLP148 P0000 60000 T02100208 10262 20210 57013
Observed
Jul-10 @ 23:56 UTC
Wind
  • 100° at 7 KTS
Visibility
1/2 SM
Flight Rules
LIFR
Conditions
Fog
Cloud Levels
  • Overcast at 100' AGL
Temperature
21°C / 70°F
Dewpoint
21°C / 70°F
Humidity
100%
Altimeter
29.96" Hg
Pressure
1014.52 hPa
Current Rain
0.01"
Previous

3 hours ago

KPSM 102304Z 09007KT 1/4SM R16/4500FT FG VV001 21/21 A2997 RMK AO2A DZE04 SLP151
Observed
Jul-10 @ 23:04 UTC
Wind
  • 090° at 7 KTS
Visibility
Flight Rules
LIFR
Conditions
Fog
Cloud Levels
  • Vertical visibility
Temperature
21°C / 70°F
Dewpoint
21°C / 70°F
Humidity
100%
Altimeter
29.97" Hg
Pressure
1014.92 hPa